sensor_id;sensor_type;location;lat;lon;timestamp;P1;durP1;ratioP1;P2;durP2;ratioP2
81176;SDS011;70786;48.272;14.200;2023-07-13T00:00:35;8.65;;;3.35;;
81176;SDS011;70786;48.272;14.200;2023-07-13T00:03:02;9.18;;;3.90;;
81176;SDS011;70786;48.272;14.200;2023-07-13T00:05:29;12.68;;;4.10;;
81176;SDS011;70786;48.272;14.200;2023-07-13T00:07:55;6.55;;;3.30;;
81176;SDS011;70786;48.272;14.200;2023-07-13T00:10:22;8.88;;;3.78;;
81176;SDS011;70786;48.272;14.200;2023-07-13T00:12:48;9.15;;;3.72;;
81176;SDS011;70786;48.272;14.200;2023-07-13T00:15:18;7.95;;;3.92;;
81176;SDS011;70786;48.272;14.200;2023-07-13T00:17:48;8.85;;;4.43;;
81176;SDS011;70786;48.272;14.200;2023-07-13T00:20:16;5.95;;;3.42;;
81176;SDS011;70786;48.272;14.200;2023-07-13T00:22:42;10.85;;;3.83;;
81176;SDS011;70786;48.272;14.200;2023-07-13T00:25:10;7.45;;;3.58;;
81176;SDS011;70786;48.272;14.200;2023-07-13T00:27:37;8.18;;;3.40;;
81176;SDS011;70786;48.272;14.200;2023-07-13T00:30:03;10.13;;;3.70;;
81176;SDS011;70786;48.272;14.200;2023-07-13T00:32:30;10.45;;;5.35;;
81176;SDS011;70786;48.272;14.200;2023-07-13T00:34:57;7.43;;;3.90;;
81176;SDS011;70786;48.272;14.200;2023-07-13T00:37:25;7.78;;;4.22;;
81176;SDS011;70786;48.272;14.200;2023-07-13T00:39:51;10.35;;;4.20;;
81176;SDS011;70786;48.272;14.200;2023-07-13T00:42:17;6.72;;;3.90;;
81176;SDS011;70786;48.272;14.200;2023-07-13T00:47:37;8.93;;;3.40;;
81176;SDS011;70786;48.272;14.200;2023-07-13T00:50:08;6.45;;;3.72;;
81176;SDS011;70786;48.272;14.200;2023-07-13T00:52:37;9.48;;;3.72;;
81176;SDS011;70786;48.272;14.200;2023-07-13T00:55:06;9.93;;;3.50;;
81176;SDS011;70786;48.272;14.200;2023-07-13T00:57:35;11.45;;;3.55;;
81176;SDS011;70786;48.272;14.200;2023-07-13T01:00:03;6.63;;;3.47;;
81176;SDS011;70786;48.272;14.200;2023-07-13T01:02:32;7.50;;;3.65;;
81176;SDS011;70786;48.272;14.200;2023-07-13T01:04:58;6.53;;;2.92;;
81176;SDS011;70786;48.272;14.200;2023-07-13T01:07:25;4.57;;;3.00;;
81176;SDS011;70786;48.272;14.200;2023-07-13T01:09:51;7.45;;;3.60;;
81176;SDS011;70786;48.272;14.200;2023-07-13T01:12:17;7.97;;;3.15;;
81176;SDS011;70786;48.272;14.200;2023-07-13T01:14:43;3.92;;;2.78;;
81176;SDS011;70786;48.272;14.200;2023-07-13T01:17:12;5.10;;;2.63;;
81176;SDS011;70786;48.272;14.200;2023-07-13T01:19:39;3.13;;;2.33;;
81176;SDS011;70786;48.272;14.200;2023-07-13T01:22:12;4.47;;;2.80;;
81176;SDS011;70786;48.272;14.200;2023-07-13T01:24:41;5.68;;;2.30;;
81176;SDS011;70786;48.272;14.200;2023-07-13T01:27:10;9.32;;;2.95;;
81176;SDS011;70786;48.272;14.200;2023-07-13T01:29:38;7.32;;;2.10;;
81176;SDS011;70786;48.272;14.200;2023-07-13T01:32:08;6.80;;;3.03;;
81176;SDS011;70786;48.272;14.200;2023-07-13T01:34:38;6.10;;;3.42;;
81176;SDS011;70786;48.272;14.200;2023-07-13T01:37:08;5.10;;;2.75;;
81176;SDS011;70786;48.272;14.200;2023-07-13T01:39:35;9.63;;;3.17;;
81176;SDS011;70786;48.272;14.200;2023-07-13T01:42:01;5.88;;;3.10;;
81176;SDS011;70786;48.272;14.200;2023-07-13T01:44:27;6.40;;;3.13;;
81176;SDS011;70786;48.272;14.200;2023-07-13T01:46:53;5.68;;;3.10;;
81176;SDS011;70786;48.272;14.200;2023-07-13T01:49:20;5.15;;;3.50;;
81176;SDS011;70786;48.272;14.200;2023-07-13T01:51:46;7.25;;;3.42;;
81176;SDS011;70786;48.272;14.200;2023-07-13T01:54:12;8.07;;;3.60;;
81176;SDS011;70786;48.272;14.200;2023-07-13T01:56:38;6.20;;;3.67;;
81176;SDS011;70786;48.272;14.200;2023-07-13T01:59:05;5.55;;;3.25;;
81176;SDS011;70786;48.272;14.200;2023-07-13T02:01:34;6.40;;;3.30;;
81176;SDS011;70786;48.272;14.200;2023-07-13T02:04:03;6.55;;;3.78;;
81176;SDS011;70786;48.272;14.200;2023-07-13T02:06:30;8.57;;;4.05;;
81176;SDS011;70786;48.272;14.200;2023-07-13T02:08:58;5.63;;;3.35;;
81176;SDS011;70786;48.272;14.200;2023-07-13T02:11:25;7.50;;;3.67;;
81176;SDS011;70786;48.272;14.200;2023-07-13T02:14:03;8.65;;;3.70;;
81176;SDS011;70786;48.272;14.200;2023-07-13T02:16:37;9.13;;;3.85;;
81176;SDS011;70786;48.272;14.200;2023-07-13T02:19:06;9.45;;;3.83;;
81176;SDS011;70786;48.272;14.200;2023-07-13T02:21:38;9.93;;;4.00;;
81176;SDS011;70786;48.272;14.200;2023-07-13T02:24:04;10.23;;;4.30;;
81176;SDS011;70786;48.272;14.200;2023-07-13T02:26:33;8.80;;;4.03;;
81176;SDS011;70786;48.272;14.200;2023-07-13T02:29:03;7.20;;;3.50;;
81176;SDS011;70786;48.272;14.200;2023-07-13T02:31:32;7.38;;;4.00;;
81176;SDS011;70786;48.272;14.200;2023-07-13T02:33:58;5.38;;;3.78;;
81176;SDS011;70786;48.272;14.200;2023-07-13T02:36:27;9.10;;;4.40;;
81176;SDS011;70786;48.272;14.200;2023-07-13T02:38:53;6.95;;;4.20;;
81176;SDS011;70786;48.272;14.200;2023-07-13T02:41:20;8.20;;;4.18;;
81176;SDS011;70786;48.272;14.200;2023-07-13T02:43:49;6.88;;;3.53;;
81176;SDS011;70786;48.272;14.200;2023-07-13T02:46:18;7.15;;;4.13;;
81176;SDS011;70786;48.272;14.200;2023-07-13T02:48:45;7.72;;;4.22;;
81176;SDS011;70786;48.272;14.200;2023-07-13T02:51:11;7.80;;;4.70;;
81176;SDS011;70786;48.272;14.200;2023-07-13T02:53:38;5.85;;;3.97;;
81176;SDS011;70786;48.272;14.200;2023-07-13T02:56:05;7.97;;;4.20;;
81176;SDS011;70786;48.272;14.200;2023-07-13T02:58:31;11.15;;;4.90;;
81176;SDS011;70786;48.272;14.200;2023-07-13T03:01:05;7.40;;;4.15;;
81176;SDS011;70786;48.272;14.200;2023-07-13T03:03:35;7.68;;;4.15;;
81176;SDS011;70786;48.272;14.200;2023-07-13T03:06:02;6.35;;;4.00;;
81176;SDS011;70786;48.272;14.200;2023-07-13T03:08:34;8.63;;;4.20;;
81176;SDS011;70786;48.272;14.200;2023-07-13T03:11:04;6.25;;;4.22;;
81176;SDS011;70786;48.272;14.200;2023-07-13T03:13:37;8.50;;;4.38;;
81176;SDS011;70786;48.272;14.200;2023-07-13T03:16:04;7.50;;;4.20;;
81176;SDS011;70786;48.272;14.200;2023-07-13T03:21:03;6.38;;;3.58;;
81176;SDS011;70786;48.272;14.200;2023-07-13T03:23:31;6.72;;;3.83;;
81176;SDS011;70786;48.272;14.200;2023-07-13T03:26:03;7.40;;;4.22;;
81176;SDS011;70786;48.272;14.200;2023-07-13T03:28:33;6.80;;;3.97;;
81176;SDS011;70786;48.272;14.200;2023-07-13T03:31:03;7.10;;;4.00;;
81176;SDS011;70786;48.272;14.200;2023-07-13T03:33:35;5.65;;;3.45;;
81176;SDS011;70786;48.272;14.200;2023-07-13T03:36:05;8.27;;;3.70;;
81176;SDS011;70786;48.272;14.200;2023-07-13T03:38:35;5.57;;;3.20;;
81176;SDS011;70786;48.272;14.200;2023-07-13T03:41:05;6.32;;;3.35;;
81176;SDS011;70786;48.272;14.200;2023-07-13T03:43:34;5.80;;;3.28;;
81176;SDS011;70786;48.272;14.200;2023-07-13T03:46:01;8.15;;;3.92;;
81176;SDS011;70786;48.272;14.200;2023-07-13T03:48:27;5.15;;;3.70;;
81176;SDS011;70786;48.272;14.200;2023-07-13T03:50:54;10.50;;;3.80;;
81176;SDS011;70786;48.272;14.200;2023-07-13T03:53:23;5.07;;;2.95;;
81176;SDS011;70786;48.272;14.200;2023-07-13T03:55:50;7.50;;;3.40;;
81176;SDS011;70786;48.272;14.200;2023-07-13T03:58:27;7.97;;;3.45;;
81176;SDS011;70786;48.272;14.200;2023-07-13T04:00:59;7.18;;;3.80;;
81176;SDS011;70786;48.272;14.200;2023-07-13T04:03:26;7.97;;;3.75;;
81176;SDS011;70786;48.272;14.200;2023-07-13T04:05:54;11.82;;;4.53;;
81176;SDS011;70786;48.272;14.200;2023-07-13T04:08:28;6.40;;;3.97;;
81176;SDS011;70786;48.272;14.200;2023-07-13T04:10:57;6.82;;;3.50;;
81176;SDS011;70786;48.272;14.200;2023-07-13T04:13:25;9.95;;;4.10;;
81176;SDS011;70786;48.272;14.200;2023-07-13T04:15:52;15.38;;;4.45;;
81176;SDS011;70786;48.272;14.200;2023-07-13T04:18:19;9.07;;;5.10;;
81176;SDS011;70786;48.272;14.200;2023-07-13T04:20:50;8.23;;;4.22;;
81176;SDS011;70786;48.272;14.200;2023-07-13T04:23:17;5.50;;;4.25;;
81176;SDS011;70786;48.272;14.200;2023-07-13T04:25:47;11.73;;;5.55;;
81176;SDS011;70786;48.272;14.200;2023-07-13T04:28:19;6.85;;;4.40;;
81176;SDS011;70786;48.272;14.200;2023-07-13T04:30:46;9.23;;;4.32;;
81176;SDS011;70786;48.272;14.200;2023-07-13T04:33:16;9.38;;;4.38;;
81176;SDS011;70786;48.272;14.200;2023-07-13T04:35:43;8.65;;;3.92;;
81176;SDS011;70786;48.272;14.200;2023-07-13T04:38:12;8.15;;;3.70;;
81176;SDS011;70786;48.272;14.200;2023-07-13T04:40:44;7.38;;;4.05;;
81176;SDS011;70786;48.272;14.200;2023-07-13T04:43:11;8.60;;;3.47;;
81176;SDS011;70786;48.272;14.200;2023-07-13T04:45:38;9.10;;;4.30;;
81176;SDS011;70786;48.272;14.200;2023-07-13T04:48:04;6.07;;;3.80;;
81176;SDS011;70786;48.272;14.200;2023-07-13T04:50:31;8.70;;;3.75;;
81176;SDS011;70786;48.272;14.200;2023-07-13T04:52:58;8.00;;;4.03;;
81176;SDS011;70786;48.272;14.200;2023-07-13T04:55:25;8.60;;;3.65;;
81176;SDS011;70786;48.272;14.200;2023-07-13T04:57:56;7.15;;;3.58;;
81176;SDS011;70786;48.272;14.200;2023-07-13T05:00:31;7.53;;;4.10;;
81176;SDS011;70786;48.272;14.200;2023-07-13T05:03:05;6.90;;;3.50;;
81176;SDS011;70786;48.272;14.200;2023-07-13T05:05:32;6.93;;;4.10;;
81176;SDS011;70786;48.272;14.200;2023-07-13T05:08:00;6.18;;;3.90;;
81176;SDS011;70786;48.272;14.200;2023-07-13T05:10:26;6.38;;;3.83;;
81176;SDS011;70786;48.272;14.200;2023-07-13T05:12:53;6.13;;;4.03;;
81176;SDS011;70786;48.272;14.200;2023-07-13T05:15:23;6.25;;;3.75;;
81176;SDS011;70786;48.272;14.200;2023-07-13T05:17:51;7.90;;;3.85;;
81176;SDS011;70786;48.272;14.200;2023-07-13T05:20:19;6.05;;;4.05;;
81176;SDS011;70786;48.272;14.200;2023-07-13T05:22:46;5.03;;;3.78;;
81176;SDS011;70786;48.272;14.200;2023-07-13T05:25:12;7.43;;;3.90;;
81176;SDS011;70786;48.272;14.200;2023-07-13T05:27:39;8.25;;;4.05;;
81176;SDS011;70786;48.272;14.200;2023-07-13T05:30:11;7.65;;;3.97;;
81176;SDS011;70786;48.272;14.200;2023-07-13T05:32:38;8.02;;;3.80;;
81176;SDS011;70786;48.272;14.200;2023-07-13T05:35:06;7.85;;;3.75;;
81176;SDS011;70786;48.272;14.200;2023-07-13T05:37:33;7.72;;;4.00;;
81176;SDS011;70786;48.272;14.200;2023-07-13T05:40:00;4.82;;;3.42;;
81176;SDS011;70786;48.272;14.200;2023-07-13T05:42:30;6.60;;;3.90;;
81176;SDS011;70786;48.272;14.200;2023-07-13T05:45:00;10.52;;;4.40;;
81176;SDS011;70786;48.272;14.200;2023-07-13T05:47:27;6.65;;;3.95;;
81176;SDS011;70786;48.272;14.200;2023-07-13T05:49:56;6.45;;;4.00;;
81176;SDS011;70786;48.272;14.200;2023-07-13T05:52:23;5.38;;;3.92;;
81176;SDS011;70786;48.272;14.200;2023-07-13T05:54:49;8.88;;;3.90;;
81176;SDS011;70786;48.272;14.200;2023-07-13T05:57:16;8.00;;;3.85;;
81176;SDS011;70786;48.272;14.200;2023-07-13T05:59:42;5.32;;;3.55;;
81176;SDS011;70786;48.272;14.200;2023-07-13T06:02:09;5.25;;;3.88;;
81176;SDS011;70786;48.272;14.200;2023-07-13T06:04:36;7.65;;;4.90;;
81176;SDS011;70786;48.272;14.200;2023-07-13T06:07:03;9.80;;;4.28;;
81176;SDS011;70786;48.272;14.200;2023-07-13T06:09:30;6.57;;;4.20;;
81176;SDS011;70786;48.272;14.200;2023-07-13T06:12:02;5.43;;;3.95;;
81176;SDS011;70786;48.272;14.200;2023-07-13T06:14:31;6.68;;;3.58;;
81176;SDS011;70786;48.272;14.200;2023-07-13T06:16:57;5.20;;;3.65;;
81176;SDS011;70786;48.272;14.200;2023-07-13T06:19:28;6.70;;;4.47;;
81176;SDS011;70786;48.272;14.200;2023-07-13T06:21:55;8.50;;;4.05;;
81176;SDS011;70786;48.272;14.200;2023-07-13T06:24:21;7.35;;;4.45;;
81176;SDS011;70786;48.272;14.200;2023-07-13T06:26:51;7.22;;;4.10;;
81176;SDS011;70786;48.272;14.200;2023-07-13T06:29:18;8.27;;;3.85;;
81176;SDS011;70786;48.272;14.200;2023-07-13T06:31:44;8.95;;;4.18;;
81176;SDS011;70786;48.272;14.200;2023-07-13T06:34:10;8.57;;;4.32;;
81176;SDS011;70786;48.272;14.200;2023-07-13T06:36:37;8.75;;;4.28;;
81176;SDS011;70786;48.272;14.200;2023-07-13T06:39:04;7.43;;;3.88;;
81176;SDS011;70786;48.272;14.200;2023-07-13T06:41:35;5.65;;;3.67;;
81176;SDS011;70786;48.272;14.200;2023-07-13T06:44:04;4.72;;;3.47;;
81176;SDS011;70786;48.272;14.200;2023-07-13T06:46:33;5.45;;;3.80;;
81176;SDS011;70786;48.272;14.200;2023-07-13T06:49:05;6.57;;;3.72;;
81176;SDS011;70786;48.272;14.200;2023-07-13T06:51:36;6.35;;;4.13;;
81176;SDS011;70786;48.272;14.200;2023-07-13T06:54:02;8.18;;;4.25;;
81176;SDS011;70786;48.272;14.200;2023-07-13T06:56:28;7.30;;;3.90;;
81176;SDS011;70786;48.272;14.200;2023-07-13T06:58:54;6.28;;;3.72;;
81176;SDS011;70786;48.272;14.200;2023-07-13T07:01:20;6.63;;;3.33;;
81176;SDS011;70786;48.272;14.200;2023-07-13T07:03:46;8.23;;;3.70;;
81176;SDS011;70786;48.272;14.200;2023-07-13T07:06:17;4.53;;;3.53;;
81176;SDS011;70786;48.272;14.200;2023-07-13T07:08:45;5.60;;;3.08;;
81176;SDS011;70786;48.272;14.200;2023-07-13T07:11:12;3.88;;;2.88;;
81176;SDS011;70786;48.272;14.200;2023-07-13T07:13:39;5.90;;;2.80;;
81176;SDS011;70786;48.272;14.200;2023-07-13T07:16:05;4.25;;;2.40;;
81176;SDS011;70786;48.272;14.200;2023-07-13T07:18:32;2.80;;;2.30;;
81176;SDS011;70786;48.272;14.200;2023-07-13T07:20:58;4.45;;;2.15;;
81176;SDS011;70786;48.272;14.200;2023-07-13T07:23:24;2.63;;;2.05;;
81176;SDS011;70786;48.272;14.200;2023-07-13T07:25:50;4.47;;;2.40;;
81176;SDS011;70786;48.272;14.200;2023-07-13T07:28:17;3.20;;;2.00;;
81176;SDS011;70786;48.272;14.200;2023-07-13T07:30:44;3.10;;;2.08;;
81176;SDS011;70786;48.272;14.200;2023-07-13T07:33:10;4.72;;;2.70;;
81176;SDS011;70786;48.272;14.200;2023-07-13T07:35:36;4.60;;;2.42;;
81176;SDS011;70786;48.272;14.200;2023-07-13T07:38:02;2.42;;;1.75;;
81176;SDS011;70786;48.272;14.200;2023-07-13T07:40:28;4.22;;;2.40;;
81176;SDS011;70786;48.272;14.200;2023-07-13T07:42:55;5.18;;;2.38;;
81176;SDS011;70786;48.272;14.200;2023-07-13T07:45:21;3.20;;;2.42;;
81176;SDS011;70786;48.272;14.200;2023-07-13T07:47:47;3.25;;;2.28;;
81176;SDS011;70786;48.272;14.200;2023-07-13T07:50:13;5.05;;;2.78;;
81176;SDS011;70786;48.272;14.200;2023-07-13T07:52:39;5.82;;;2.47;;
81176;SDS011;70786;48.272;14.200;2023-07-13T07:55:06;5.55;;;2.70;;
81176;SDS011;70786;48.272;14.200;2023-07-13T07:57:33;3.28;;;2.60;;
81176;SDS011;70786;48.272;14.200;2023-07-13T07:59:59;3.38;;;2.53;;
81176;SDS011;70786;48.272;14.200;2023-07-13T08:02:25;3.75;;;2.70;;
81176;SDS011;70786;48.272;14.200;2023-07-13T08:04:51;5.22;;;2.80;;
81176;SDS011;70786;48.272;14.200;2023-07-13T08:07:18;4.45;;;2.78;;
81176;SDS011;70786;48.272;14.200;2023-07-13T08:09:44;4.10;;;2.75;;
81176;SDS011;70786;48.272;14.200;2023-07-13T08:12:10;4.85;;;2.72;;
81176;SDS011;70786;48.272;14.200;2023-07-13T08:14:36;8.23;;;3.95;;
81176;SDS011;70786;48.272;14.200;2023-07-13T08:17:03;4.63;;;2.67;;
81176;SDS011;70786;48.272;14.200;2023-07-13T08:19:30;4.07;;;2.65;;
81176;SDS011;70786;48.272;14.200;2023-07-13T08:21:56;5.25;;;2.60;;
81176;SDS011;70786;48.272;14.200;2023-07-13T08:24:23;4.15;;;2.60;;
81176;SDS011;70786;48.272;14.200;2023-07-13T08:26:50;3.35;;;2.67;;
81176;SDS011;70786;48.272;14.200;2023-07-13T08:29:16;3.65;;;2.53;;
81176;SDS011;70786;48.272;14.200;2023-07-13T08:31:42;3.67;;;2.70;;
81176;SDS011;70786;48.272;14.200;2023-07-13T08:34:08;4.85;;;2.60;;
81176;SDS011;70786;48.272;14.200;2023-07-13T08:36:34;5.45;;;2.50;;
81176;SDS011;70786;48.272;14.200;2023-07-13T08:39:00;5.07;;;2.50;;
81176;SDS011;70786;48.272;14.200;2023-07-13T08:41:26;3.42;;;2.33;;
81176;SDS011;70786;48.272;14.200;2023-07-13T08:43:56;4.32;;;2.50;;
81176;SDS011;70786;48.272;14.200;2023-07-13T08:46:45;5.72;;;3.00;;
81176;SDS011;70786;48.272;14.200;2023-07-13T08:49:12;4.28;;;2.40;;
81176;SDS011;70786;48.272;14.200;2023-07-13T08:54:18;3.40;;;2.53;;
81176;SDS011;70786;48.272;14.200;2023-07-13T08:56:45;4.97;;;2.50;;
81176;SDS011;70786;48.272;14.200;2023-07-13T08:59:16;6.70;;;2.47;;
81176;SDS011;70786;48.272;14.200;2023-07-13T09:04:35;4.70;;;2.20;;
81176;SDS011;70786;48.272;14.200;2023-07-13T09:07:11;5.20;;;2.83;;
81176;SDS011;70786;48.272;14.200;2023-07-13T09:13:18;3.30;;;2.17;;
81176;SDS011;70786;48.272;14.200;2023-07-13T09:15:48;5.35;;;2.88;;
81176;SDS011;70786;48.272;14.200;2023-07-13T09:21:13;5.93;;;2.40;;
81176;SDS011;70786;48.272;14.200;2023-07-13T09:23:42;3.38;;;2.22;;
81176;SDS011;70786;48.272;14.200;2023-07-13T09:26:16;5.50;;;2.80;;
81176;SDS011;70786;48.272;14.200;2023-07-13T09:28:48;6.18;;;2.42;;
81176;SDS011;70786;48.272;14.200;2023-07-13T09:31:20;2.75;;;2.40;;
81176;SDS011;70786;48.272;14.200;2023-07-13T09:34:08;4.05;;;2.67;;
81176;SDS011;70786;48.272;14.200;2023-07-13T09:36:35;3.35;;;2.40;;
81176;SDS011;70786;48.272;14.200;2023-07-13T09:41:34;3.53;;;2.30;;
81176;SDS011;70786;48.272;14.200;2023-07-13T09:44:17;5.45;;;2.30;;
81176;SDS011;70786;48.272;14.200;2023-07-13T09:46:46;3.90;;;2.35;;
81176;SDS011;70786;48.272;14.200;2023-07-13T09:49:18;3.55;;;2.25;;
81176;SDS011;70786;48.272;14.200;2023-07-13T09:51:44;4.93;;;2.60;;
81176;SDS011;70786;48.272;14.200;2023-07-13T09:54:20;3.88;;;2.38;;
81176;SDS011;70786;48.272;14.200;2023-07-13T09:56:58;3.25;;;2.10;;
81176;SDS011;70786;48.272;14.200;2023-07-13T09:59:32;3.20;;;2.05;;
81176;SDS011;70786;48.272;14.200;2023-07-13T10:02:00;4.18;;;2.03;;
81176;SDS011;70786;48.272;14.200;2023-07-13T10:04:35;4.60;;;2.30;;
81176;SDS011;70786;48.272;14.200;2023-07-13T10:07:05;4.22;;;2.20;;
81176;SDS011;70786;48.272;14.200;2023-07-13T10:09:35;6.07;;;2.38;;
81176;SDS011;70786;48.272;14.200;2023-07-13T10:12:01;3.03;;;1.90;;
81176;SDS011;70786;48.272;14.200;2023-07-13T10:14:27;3.20;;;2.10;;
81176;SDS011;70786;48.272;14.200;2023-07-13T10:17:00;2.67;;;2.17;;
81176;SDS011;70786;48.272;14.200;2023-07-13T10:19:30;3.25;;;1.95;;
81176;SDS011;70786;48.272;14.200;2023-07-13T10:22:00;3.15;;;2.13;;
81176;SDS011;70786;48.272;14.200;2023-07-13T10:24:52;3.03;;;2.00;;
81176;SDS011;70786;48.272;14.200;2023-07-13T10:27:25;3.30;;;2.10;;
81176;SDS011;70786;48.272;14.200;2023-07-13T10:30:00;3.28;;;2.33;;
81176;SDS011;70786;48.272;14.200;2023-07-13T10:35:01;3.08;;;1.77;;
81176;SDS011;70786;48.272;14.200;2023-07-13T10:38:03;3.88;;;2.47;;
81176;SDS011;70786;48.272;14.200;2023-07-13T10:40:33;3.75;;;2.03;;
81176;SDS011;70786;48.272;14.200;2023-07-13T10:43:01;4.10;;;2.30;;
81176;SDS011;70786;48.272;14.200;2023-07-13T10:45:31;2.60;;;2.10;;
81176;SDS011;70786;48.272;14.200;2023-07-13T10:48:00;3.13;;;1.90;;
81176;SDS011;70786;48.272;14.200;2023-07-13T10:50:28;6.63;;;2.15;;
81176;SDS011;70786;48.272;14.200;2023-07-13T10:53:03;4.32;;;2.40;;
81176;SDS011;70786;48.272;14.200;2023-07-13T11:03:36;2.33;;;1.75;;
81176;SDS011;70786;48.272;14.200;2023-07-13T11:06:29;2.75;;;2.00;;
81176;SDS011;70786;48.272;14.200;2023-07-13T11:11:47;7.50;;;2.40;;
81176;SDS011;70786;48.272;14.200;2023-07-13T11:14:25;2.47;;;1.75;;
81176;SDS011;70786;48.272;14.200;2023-07-13T11:16:56;5.05;;;2.20;;
81176;SDS011;70786;48.272;14.200;2023-07-13T11:22:09;2.38;;;1.67;;
81176;SDS011;70786;48.272;14.200;2023-07-13T11:24:57;3.58;;;1.83;;
81176;SDS011;70786;48.272;14.200;2023-07-13T11:35:49;4.82;;;1.70;;
81176;SDS011;70786;48.272;14.200;2023-07-13T11:38:38;3.25;;;1.65;;
81176;SDS011;70786;48.272;14.200;2023-07-13T11:43:37;2.33;;;1.63;;
81176;SDS011;70786;48.272;14.200;2023-07-13T11:46:23;3.20;;;1.63;;
81176;SDS011;70786;48.272;14.200;2023-07-13T11:48:51;3.13;;;1.63;;
81176;SDS011;70786;48.272;14.200;2023-07-13T11:51:31;4.20;;;1.77;;
81176;SDS011;70786;48.272;14.200;2023-07-13T11:54:06;3.83;;;1.75;;
81176;SDS011;70786;48.272;14.200;2023-07-13T11:56:41;2.40;;;1.88;;
81176;SDS011;70786;48.272;14.200;2023-07-13T11:59:07;2.65;;;1.63;;
81176;SDS011;70786;48.272;14.200;2023-07-13T12:01:42;2.72;;;1.60;;
81176;SDS011;70786;48.272;14.200;2023-07-13T12:04:19;2.25;;;1.63;;
81176;SDS011;70786;48.272;14.200;2023-07-13T12:06:47;2.30;;;1.50;;
81176;SDS011;70786;48.272;14.200;2023-07-13T12:09:20;3.20;;;1.42;;
81176;SDS011;70786;48.272;14.200;2023-07-13T12:11:50;2.08;;;1.63;;
81176;SDS011;70786;48.272;14.200;2023-07-13T12:14:17;3.35;;;1.90;;
81176;SDS011;70786;48.272;14.200;2023-07-13T12:16:47;2.67;;;1.70;;
81176;SDS011;70786;48.272;14.200;2023-07-13T12:19:17;3.85;;;1.70;;
81176;SDS011;70786;48.272;14.200;2023-07-13T12:21:46;3.35;;;1.60;;
81176;SDS011;70786;48.272;14.200;2023-07-13T12:24:16;2.65;;;1.65;;
81176;SDS011;70786;48.272;14.200;2023-07-13T12:26:44;4.28;;;1.80;;
81176;SDS011;70786;48.272;14.200;2023-07-13T12:29:13;4.13;;;1.60;;
81176;SDS011;70786;48.272;14.200;2023-07-13T12:31:45;5.10;;;1.95;;
81176;SDS011;70786;48.272;14.200;2023-07-13T12:34:13;2.92;;;1.70;;
81176;SDS011;70786;48.272;14.200;2023-07-13T12:36:46;4.53;;;1.60;;
81176;SDS011;70786;48.272;14.200;2023-07-13T12:39:15;1.88;;;1.38;;
81176;SDS011;70786;48.272;14.200;2023-07-13T12:41:54;2.80;;;1.60;;
81176;SDS011;70786;48.272;14.200;2023-07-13T12:44:51;2.72;;;1.52;;
81176;SDS011;70786;48.272;14.200;2023-07-13T12:47:20;2.83;;;1.63;;
81176;SDS011;70786;48.272;14.200;2023-07-13T12:49:50;3.78;;;1.60;;
81176;SDS011;70786;48.272;14.200;2023-07-13T12:52:21;5.70;;;1.70;;
81176;SDS011;70786;48.272;14.200;2023-07-13T12:54:55;2.40;;;2.00;;
81176;SDS011;70786;48.272;14.200;2023-07-13T12:57:24;3.60;;;1.73;;
81176;SDS011;70786;48.272;14.200;2023-07-13T12:59:52;4.13;;;1.80;;
81176;SDS011;70786;48.272;14.200;2023-07-13T13:04:59;3.70;;;1.80;;
81176;SDS011;70786;48.272;14.200;2023-07-13T13:07:26;3.15;;;1.67;;
81176;SDS011;70786;48.272;14.200;2023-07-13T13:09:52;3.42;;;1.63;;
81176;SDS011;70786;48.272;14.200;2023-07-13T13:12:19;2.95;;;1.52;;
81176;SDS011;70786;48.272;14.200;2023-07-13T13:14:45;2.00;;;1.88;;
81176;SDS011;70786;48.272;14.200;2023-07-13T13:17:17;3.88;;;1.77;;
81176;SDS011;70786;48.272;14.200;2023-07-13T13:19:46;4.32;;;2.17;;
81176;SDS011;70786;48.272;14.200;2023-07-13T13:22:12;2.90;;;1.70;;
81176;SDS011;70786;48.272;14.200;2023-07-13T13:24:39;4.65;;;1.88;;
81176;SDS011;70786;48.272;14.200;2023-07-13T13:27:10;3.00;;;2.10;;
81176;SDS011;70786;48.272;14.200;2023-07-13T13:29:41;4.22;;;1.50;;
81176;SDS011;70786;48.272;14.200;2023-07-13T13:32:09;4.68;;;1.75;;
81176;SDS011;70786;48.272;14.200;2023-07-13T13:34:37;2.72;;;1.42;;
81176;SDS011;70786;48.272;14.200;2023-07-13T13:37:03;3.88;;;1.67;;
81176;SDS011;70786;48.272;14.200;2023-07-13T13:39:45;3.42;;;1.60;;
81176;SDS011;70786;48.272;14.200;2023-07-13T13:42:12;3.38;;;1.70;;
81176;SDS011;70786;48.272;14.200;2023-07-13T13:44:39;4.30;;;1.80;;
81176;SDS011;70786;48.272;14.200;2023-07-13T13:47:17;2.67;;;1.55;;
81176;SDS011;70786;48.272;14.200;2023-07-13T13:49:56;4.18;;;1.98;;
81176;SDS011;70786;48.272;14.200;2023-07-13T13:52:23;3.15;;;2.03;;
81176;SDS011;70786;48.272;14.200;2023-07-13T13:54:51;3.10;;;1.80;;
81176;SDS011;70786;48.272;14.200;2023-07-13T13:57:22;3.47;;;1.50;;
81176;SDS011;70786;48.272;14.200;2023-07-13T13:59:51;3.33;;;1.50;;
81176;SDS011;70786;48.272;14.200;2023-07-13T14:02:28;3.13;;;1.33;;
81176;SDS011;70786;48.272;14.200;2023-07-13T14:05:00;2.10;;;1.70;;
81176;SDS011;70786;48.272;14.200;2023-07-13T14:07:28;3.60;;;1.50;;
81176;SDS011;70786;48.272;14.200;2023-07-13T14:09:57;4.40;;;1.50;;
81176;SDS011;70786;48.272;14.200;2023-07-13T14:12:26;3.67;;;1.42;;
81176;SDS011;70786;48.272;14.200;2023-07-13T14:14:54;2.35;;;1.50;;
81176;SDS011;70786;48.272;14.200;2023-07-13T14:17:24;3.42;;;1.35;;
81176;SDS011;70786;48.272;14.200;2023-07-13T14:19:52;3.03;;;1.48;;
81176;SDS011;70786;48.272;14.200;2023-07-13T14:22:26;1.50;;;1.25;;
81176;SDS011;70786;48.272;14.200;2023-07-13T14:24:53;2.92;;;1.25;;
81176;SDS011;70786;48.272;14.200;2023-07-13T14:27:19;2.58;;;1.13;;
81176;SDS011;70786;48.272;14.200;2023-07-13T14:29:46;1.83;;;1.20;;
81176;SDS011;70786;48.272;14.200;2023-07-13T14:32:13;2.08;;;1.30;;
81176;SDS011;70786;48.272;14.200;2023-07-13T14:34:39;1.75;;;1.20;;
81176;SDS011;70786;48.272;14.200;2023-07-13T14:37:08;3.10;;;1.20;;
81176;SDS011;70786;48.272;14.200;2023-07-13T14:39:40;2.63;;;1.30;;
81176;SDS011;70786;48.272;14.200;2023-07-13T14:42:09;2.78;;;1.25;;
81176;SDS011;70786;48.272;14.200;2023-07-13T14:44:37;2.70;;;1.13;;
81176;SDS011;70786;48.272;14.200;2023-07-13T14:47:04;4.68;;;1.30;;
81176;SDS011;70786;48.272;14.200;2023-07-13T14:52:16;2.95;;;1.30;;
81176;SDS011;70786;48.272;14.200;2023-07-13T14:54:45;3.85;;;1.17;;
81176;SDS011;70786;48.272;14.200;2023-07-13T14:57:12;3.50;;;1.30;;
81176;SDS011;70786;48.272;14.200;2023-07-13T14:59:39;2.60;;;1.38;;
81176;SDS011;70786;48.272;14.200;2023-07-13T15:04:55;1.90;;;1.13;;
81176;SDS011;70786;48.272;14.200;2023-07-13T15:07:21;2.08;;;1.35;;
81176;SDS011;70786;48.272;14.200;2023-07-13T15:09:48;1.60;;;1.10;;
81176;SDS011;70786;48.272;14.200;2023-07-13T15:12:16;1.83;;;1.10;;
81176;SDS011;70786;48.272;14.200;2023-07-13T15:14:43;1.95;;;1.15;;
81176;SDS011;70786;48.272;14.200;2023-07-13T15:20:15;3.88;;;1.25;;
81176;SDS011;70786;48.272;14.200;2023-07-13T15:22:43;2.15;;;1.10;;
81176;SDS011;70786;48.272;14.200;2023-07-13T15:25:15;1.48;;;1.00;;
81176;SDS011;70786;48.272;14.200;2023-07-13T15:30:12;2.10;;;1.02;;
81176;SDS011;70786;48.272;14.200;2023-07-13T15:32:43;2.90;;;1.17;;
81176;SDS011;70786;48.272;14.200;2023-07-13T15:35:13;4.38;;;1.27;;
81176;SDS011;70786;48.272;14.200;2023-07-13T15:37:41;2.00;;;1.17;;
81176;SDS011;70786;48.272;14.200;2023-07-13T15:40:07;1.50;;;1.00;;
81176;SDS011;70786;48.272;14.200;2023-07-13T15:42:34;2.75;;;1.10;;
81176;SDS011;70786;48.272;14.200;2023-07-13T15:45:02;1.80;;;0.98;;